Time;durP1;ratioP1;P1;durP2;ratioP2;P2;SDS_P1;SDS_P2;PMS_P1;PMS_P2;Temp;Humidity;BMP_temperature;BMP_pressure;BME280_temperature;BME280_humidity;BME280_pressure;Samples;Min_cycle;Max_cycle;Signal;HPM_P1;HPM_P2
2022/06/30 00:01:52;;;;;;;2.70;2.08;;;23.40;61.00;;;;;;5070460;28;20501;-72
2022/06/30 00:04:17;;;;;;;2.50;2.05;;;23.40;60.90;;;;;;5070718;28;20036;-71
2022/06/30 00:06:43;;;;;;;1.92;1.83;;;23.40;60.90;;;;;;5071729;28;20036;-72
2022/06/30 00:09:09;;;;;;;1.48;1.27;;;23.40;60.90;;;;;;5070371;28;20049;-71
2022/06/30 00:11:34;;;;;;;2.40;2.20;;;23.40;60.80;;;;;;5070279;28;20040;-71
2022/06/30 00:14:00;;;;;;;2.22;2.00;;;23.40;60.80;;;;;;5071528;28;20032;-72
2022/06/30 00:16:26;;;;;;;1.73;1.63;;;23.40;60.70;;;;;;5070333;28;20040;-72
2022/06/30 00:18:51;;;;;;;2.80;1.80;;;23.30;60.60;;;;;;5070342;28;20044;-72
2022/06/30 00:21:17;;;;;;;2.22;2.03;;;23.30;60.60;;;;;;5070504;28;20076;-71
2022/06/30 00:23:43;;;;;;;2.03;1.35;;;23.30;60.60;;;;;;5070538;28;20036;-72
2022/06/30 00:26:08;;;;;;;1.90;1.75;;;23.30;60.50;;;;;;5070424;28;20503;-72
2022/06/30 00:28:34;;;;;;;1.67;1.58;;;23.30;60.50;;;;;;5070120;28;20437;-72
2022/06/30 00:31:00;;;;;;;1.77;1.58;;;23.30;60.50;;;;;;5071409;28;20040;-72
2022/06/30 00:33:25;;;;;;;2.03;1.80;;;23.30;60.50;;;;;;5071701;28;20041;-71
2022/06/30 00:35:51;;;;;;;2.08;1.58;;;23.30;60.50;;;;;;5070634;28;20127;-71
2022/06/30 00:38:17;;;;;;;1.90;1.45;;;23.30;60.40;;;;;;5071116;28;20045;-72
2022/06/30 00:40:44;;;;;;;2.80;1.73;;;23.30;60.30;;;;;;5070289;28;20639;-72
2022/06/30 00:43:11;;;;;;;2.47;1.77;;;23.20;60.30;;;;;;5070071;28;20609;-72
2022/06/30 00:45:41;;;;;;;1.50;1.40;;;23.30;60.30;;;;;;5070163;28;20101;-71
2022/06/30 00:48:08;;;;;;;2.17;1.65;;;23.20;60.30;;;;;;5071563;28;20047;-72
2022/06/30 00:50:34;;;;;;;1.70;1.60;;;23.30;60.30;;;;;;5087082;28;20610;-72
2022/06/30 00:53:02;;;;;;;1.75;1.65;;;23.20;60.20;;;;;;5070112;28;20041;-72
2022/06/30 00:55:29;;;;;;;2.38;1.90;;;23.20;60.20;;;;;;5070948;28;20134;-71
2022/06/30 00:57:56;;;;;;;2.47;1.58;;;23.20;60.20;;;;;;5070061;28;20501;-72
2022/06/30 01:00:24;;;;;;;2.90;1.50;;;23.20;60.20;;;;;;5070154;28;20052;-71
2022/06/30 01:02:52;;;;;;;2.00;1.80;;;23.20;60.10;;;;;;5088647;28;20502;-72
2022/06/30 01:05:20;;;;;;;1.73;1.33;;;23.10;60.10;;;;;;5090423;28;20689;-71
2022/06/30 01:07:46;;;;;;;3.20;1.77;;;23.20;60.10;;;;;;5074749;28;20107;-72
2022/06/30 01:12:57;;;;;;;1.58;1.30;;;23.10;60.10;;;;;;5073283;28;20052;-71
2022/06/30 01:15:23;;;;;;;1.80;1.70;;;23.10;60.10;;;;;;5073217;28;20036;-72
2022/06/30 01:17:50;;;;;;;1.35;1.25;;;23.10;60.10;;;;;;5073454;28;20055;-71
2022/06/30 01:20:18;;;;;;;1.42;1.13;;;23.10;60.10;;;;;;5073157;28;20167;-72
2022/06/30 01:22:44;;;;;;;1.85;1.75;;;23.10;60.10;;;;;;5073149;28;20043;-72
2022/06/30 01:25:10;;;;;;;1.65;1.55;;;23.10;60.10;;;;;;5073384;28;20127;-71
2022/06/30 01:27:36;;;;;;;1.70;1.45;;;23.10;60.10;;;;;;5074325;28;20040;-71
2022/06/30 01:30:06;;;;;;;3.42;1.60;;;23.10;60.10;;;;;;5073304;28;20032;-72
2022/06/30 01:32:32;;;;;;;2.00;1.45;;;23.10;60.10;;;;;;5073197;28;20602;-72
2022/06/30 01:34:58;;;;;;;3.53;1.90;;;23.10;60.10;;;;;;5072878;28;20037;-71
2022/06/30 01:37:24;;;;;;;1.73;1.63;;;23.10;60.10;;;;;;5074107;28;20040;-71
2022/06/30 01:39:50;;;;;;;2.17;1.73;;;23.10;60.10;;;;;;5072909;28;20087;-72
2022/06/30 01:42:16;;;;;;;2.42;1.98;;;23.00;60.10;;;;;;5072733;28;20490;-71
2022/06/30 01:44:42;;;;;;;2.75;1.95;;;23.00;60.10;;;;;;5073819;28;20044;-72
2022/06/30 01:47:10;;;;;;;2.13;1.90;;;23.00;60.10;;;;;;5072682;28;20098;-71
2022/06/30 01:49:36;;;;;;;1.88;1.70;;;23.00;60.10;;;;;;5072554;28;20543;-71
2022/06/30 01:52:03;;;;;;;1.55;1.45;;;23.00;60.10;;;;;;5072949;28;20032;-71
2022/06/30 01:54:29;;;;;;;2.85;1.50;;;23.00;60.10;;;;;;5072504;28;20055;-71
2022/06/30 01:56:55;;;;;;;1.75;1.58;;;23.00;60.10;;;;;;5073571;28;20044;-71
2022/06/30 01:59:21;;;;;;;1.67;1.35;;;23.00;60.10;;;;;;5072874;28;20101;-71
2022/06/30 02:01:46;;;;;;;1.73;1.42;;;23.00;60.10;;;;;;5072705;28;20037;-71
2022/06/30 02:06:57;;;;;;;1.98;1.88;;;22.90;60.10;;;;;;5072417;28;20059;-72
2022/06/30 02:09:23;;;;;;;1.40;1.30;;;22.90;60.10;;;;;;5072121;28;20052;-71
2022/06/30 02:12:44;;;;;;;3.28;1.50;;;22.90;60.20;;;;;;5073483;28;20044;-71
2022/06/30 02:14:34;;;;;;;1.58;1.30;;;22.90;60.10;;;;;;5072116;28;20513;-71
2022/06/30 02:17:00;;;;;;;2.08;1.23;;;22.90;60.20;;;;;;5072125;28;20072;-72
2022/06/30 02:19:25;;;;;;;1.80;1.40;;;22.90;60.20;;;;;;5072253;28;20086;-71
2022/06/30 02:21:51;;;;;;;2.58;1.60;;;22.90;60.90;;;;;;5072110;28;20036;-72
2022/06/30 02:24:17;;;;;;;2.50;1.40;;;22.90;60.20;;;;;;5071915;28;20044;-71
2022/06/30 02:26:42;;;;;;;2.25;1.50;;;22.90;60.20;;;;;;5073252;28;20044;-71
2022/06/30 02:29:08;;;;;;;1.33;1.23;;;22.90;60.20;;;;;;5071846;28;20537;-71
2022/06/30 02:31:34;;;;;;;1.90;1.58;;;22.90;60.30;;;;;;5072083;28;20041;-71
2022/06/30 02:34:00;;;;;;;1.73;1.63;;;22.90;60.30;;;;;;5071860;28;20040;-71
2022/06/30 02:36:25;;;;;;;1.75;1.25;;;22.80;60.20;;;;;;5071667;28;20118;-71
2022/06/30 02:38:51;;;;;;;1.98;1.75;;;22.80;60.20;;;;;;5071839;28;20029;-71
2022/06/30 02:41:17;;;;;;;1.77;1.67;;;22.80;60.30;;;;;;5071639;28;20442;-71
2022/06/30 02:43:42;;;;;;;1.42;1.33;;;22.80;60.30;;;;;;5071532;28;20044;-71
2022/06/30 02:46:11;;;;;;;2.28;1.40;;;22.80;60.30;;;;;;5071499;28;20044;-72
2022/06/30 02:48:36;;;;;;;2.30;1.38;;;22.80;61.10;;;;;;5071743;28;20444;-71
2022/06/30 02:51:02;;;;;;;2.15;1.65;;;22.80;60.30;;;;;;5071371;28;20075;-71
2022/06/30 02:53:28;;;;;;;1.85;1.42;;;22.80;60.40;;;;;;5072695;28;20045;-71
2022/06/30 02:55:53;;;;;;;3.08;1.60;;;22.70;60.40;;;;;;5072278;28;20084;-72
2022/06/30 02:58:22;;;;;;;1.40;1.30;;;22.80;60.40;;;;;;5072492;28;20049;-71
2022/06/30 03:00:48;;;;;;;3.72;1.50;;;22.80;60.40;;;;;;5071428;28;20395;-71
2022/06/30 03:03:13;;;;;;;1.52;1.40;;;22.70;60.40;;;;;;5071205;28;20041;-72
2022/06/30 03:05:39;;;;;;;1.65;1.55;;;22.70;60.50;;;;;;5072452;28;20044;-71
2022/06/30 03:08:04;;;;;;;1.50;1.40;;;22.70;60.40;;;;;;5071113;28;20072;-71
2022/06/30 03:10:30;;;;;;;1.77;1.67;;;22.70;60.40;;;;;;5072221;28;20106;-71
2022/06/30 03:12:56;;;;;;;2.95;1.75;;;22.70;60.40;;;;;;5072507;28;20071;-71
2022/06/30 03:15:22;;;;;;;1.63;1.52;;;22.70;60.50;;;;;;5072275;28;20048;-71
2022/06/30 03:17:47;;;;;;;1.88;1.65;;;22.70;60.60;;;;;;5071203;28;20036;-71
2022/06/30 03:20:13;;;;;;;2.75;1.88;;;22.70;60.60;;;;;;5072139;28;20097;-71
2022/06/30 03:22:39;;;;;;;2.58;1.52;;;22.60;60.50;;;;;;5070915;28;20040;-71
2022/06/30 03:25:07;;;;;;;1.90;1.70;;;22.60;60.50;;;;;;5071713;28;20044;-71
2022/06/30 03:27:36;;;;;;;1.50;1.40;;;22.60;60.60;;;;;;5071057;28;20110;-71
2022/06/30 03:30:01;;;;;;;2.30;1.40;;;22.70;60.60;;;;;;5071033;28;20051;-71
2022/06/30 03:32:27;;;;;;;1.27;1.17;;;22.60;60.60;;;;;;5072088;28;20600;-71
2022/06/30 03:34:53;;;;;;;1.92;1.65;;;22.60;60.60;;;;;;5070699;28;20041;-71
2022/06/30 03:37:18;;;;;;;2.20;1.55;;;22.60;60.60;;;;;;5070663;28;20127;-71
2022/06/30 03:39:44;;;;;;;1.50;1.40;;;22.60;60.70;;;;;;5070873;28;20040;-71
2022/06/30 03:42:10;;;;;;;1.52;1.20;;;22.60;60.60;;;;;;5070888;28;20419;-71
2022/06/30 03:44:35;;;;;;;1.77;1.67;;;22.60;60.60;;;;;;5070871;28;20607;-71
2022/06/30 03:47:01;;;;;;;3.47;1.45;;;22.60;60.70;;;;;;5070535;28;20510;-71
2022/06/30 03:49:27;;;;;;;1.75;1.65;;;22.50;60.60;;;;;;5070623;28;20075;-71
2022/06/30 03:51:52;;;;;;;1.40;1.30;;;22.50;60.60;;;;;;5071751;28;20032;-71
2022/06/30 03:54:19;;;;;;;1.50;1.40;;;22.50;60.60;;;;;;5070566;28;20041;-71
2022/06/30 03:56:45;;;;;;;1.80;1.67;;;22.50;60.70;;;;;;5070176;28;20546;-71
2022/06/30 03:59:10;;;;;;;1.48;1.38;;;22.50;60.70;;;;;;5070432;28;20037;-72
2022/06/30 04:01:36;;;;;;;2.15;1.40;;;22.50;60.70;;;;;;5070658;28;20044;-71
2022/06/30 04:04:02;;;;;;;1.55;1.30;;;22.50;60.70;;;;;;5071762;28;20048;-72
2022/06/30 04:06:27;;;;;;;1.55;1.25;;;22.50;60.70;;;;;;5070777;28;20052;-71
2022/06/30 04:08:53;;;;;;;1.27;1.05;;;22.50;60.70;;;;;;5070316;28;20606;-71
2022/06/30 04:11:19;;;;;;;1.60;1.23;;;22.50;60.80;;;;;;5070547;28;20074;-71
2022/06/30 04:13:44;;;;;;;2.00;1.80;;;22.50;60.80;;;;;;5070341;28;20444;-72
2022/06/30 04:16:10;;;;;;;2.38;1.52;;;22.50;60.80;;;;;;5070426;28;20033;-71
2022/06/30 04:18:36;;;;;;;1.92;1.40;;;22.50;61.30;;;;;;5070329;28;20480;-71
2022/06/30 04:21:01;;;;;;;1.42;1.27;;;22.50;60.80;;;;;;5070144;28;20052;-71
2022/06/30 04:23:27;;;;;;;2.03;1.40;;;22.40;60.80;;;;;;5070334;28;20060;-71
2022/06/30 04:25:52;;;;;;;2.05;1.85;;;22.40;60.80;;;;;;5070382;28;20048;-71
2022/06/30 04:28:18;;;;;;;2.20;1.50;;;22.40;60.80;;;;;;5070365;28;20404;-71
2022/06/30 04:33:29;;;;;;;1.83;1.63;;;22.50;60.80;;;;;;5087108;28;20083;-71
2022/06/30 04:35:55;;;;;;;1.75;1.48;;;22.50;60.80;;;;;;5070121;28;20664;-71
2022/06/30 04:38:21;;;;;;;1.58;1.48;;;22.50;60.80;;;;;;5072664;28;20048;-71
2022/06/30 04:43:32;;;;;;;1.63;1.42;;;22.40;60.80;;;;;;5073882;28;20048;-72
2022/06/30 04:45:57;;;;;;;2.85;1.90;;;22.40;61.50;;;;;;5074172;28;20047;-71
2022/06/30 04:48:23;;;;;;;1.40;1.30;;;22.40;60.80;;;;;;5073847;28;20049;-71
2022/06/30 04:50:49;;;;;;;1.80;1.70;;;22.50;60.80;;;;;;5073997;28;20083;-71
2022/06/30 04:53:14;;;;;;;1.92;1.05;;;22.40;60.80;;;;;;5073934;28;20496;-71
2022/06/30 04:55:40;;;;;;;1.90;1.55;;;22.50;60.80;;;;;;5074558;28;20492;-71
2022/06/30 04:58:06;;;;;;;1.50;1.40;;;22.40;60.80;;;;;;5073875;28;20407;-71
2022/06/30 05:00:32;;;;;;;1.77;1.67;;;22.40;60.80;;;;;;5074899;28;20405;-71
2022/06/30 05:02:58;;;;;;;1.75;1.60;;;22.40;60.80;;;;;;5073858;28;20048;-72
2022/06/30 05:05:24;;;;;;;2.55;1.63;;;22.40;60.80;;;;;;5073411;28;20656;-71
2022/06/30 05:07:49;;;;;;;2.10;1.63;;;22.40;60.80;;;;;;5074712;28;20037;-71
2022/06/30 05:10:15;;;;;;;2.22;2.00;;;22.50;60.80;;;;;;5073673;28;20131;-71
2022/06/30 05:12:40;;;;;;;2.53;1.88;;;22.40;60.80;;;;;;5074862;28;20037;-71
2022/06/30 05:15:06;;;;;;;1.50;1.40;;;22.50;60.80;;;;;;5074476;28;20087;-71
2022/06/30 05:17:34;;;;;;;1.33;1.10;;;22.50;60.80;;;;;;5073514;28;20041;-71
2022/06/30 05:20:03;;;;;;;2.33;1.70;;;22.40;60.80;;;;;;5073394;28;20404;-71
2022/06/30 05:22:29;;;;;;;1.93;1.63;;;22.50;60.80;;;;;;5073273;28;20074;-71
2022/06/30 05:27:46;;;;;;;3.03;1.98;;;22.50;60.80;;;;;;5072967;28;20055;-71
2022/06/30 05:30:13;;;;;;;3.55;1.35;;;22.50;60.80;;;;;;5089889;28;20500;-73
2022/06/30 05:32:38;;;;;;;1.30;1.20;;;22.50;60.80;;;;;;5088642;28;20045;-68
2022/06/30 05:35:05;;;;;;;5.68;1.42;;;22.50;60.80;;;;;;5071570;28;20043;-69
2022/06/30 05:37:31;;;;;;;1.85;1.20;;;22.50;60.90;;;;;;5071962;28;20045;-69
2022/06/30 05:39:57;;;;;;;4.57;1.20;;;22.50;60.80;;;;;;5073197;28;20033;-67
2022/06/30 05:42:22;;;;;;;2.78;1.58;;;22.50;60.90;;;;;;5074661;28;20115;-70
2022/06/30 05:44:48;;;;;;;6.25;1.55;;;22.60;61.10;;;;;;5072182;28;20051;-71
2022/06/30 05:47:14;;;;;;;2.58;1.75;;;22.50;61.20;;;;;;5071572;28;20044;-73
2022/06/30 05:49:40;;;;;;;2.53;1.42;;;22.60;61.40;;;;;;5070515;28;20446;-70
2022/06/30 05:52:06;;;;;;;2.55;1.40;;;22.60;61.30;;;;;;5086768;28;20052;-69
2022/06/30 05:54:31;;;;;;;3.28;1.60;;;22.60;61.30;;;;;;5084387;28;20079;-69
2022/06/30 05:56:57;;;;;;;2.20;1.92;;;22.60;61.10;;;;;;5070100;28;20044;-69
2022/06/30 05:59:23;;;;;;;2.28;1.23;;;22.60;61.10;;;;;;5067440;28;20060;-69
2022/06/30 06:01:48;;;;;;;2.17;1.45;;;22.70;61.20;;;;;;5068745;28;20443;-69
2022/06/30 06:04:14;;;;;;;2.92;1.30;;;22.70;61.10;;;;;;5063714;28;20658;-69
2022/06/30 06:06:40;;;;;;;1.65;1.45;;;22.70;61.10;;;;;;5064063;28;20044;-68
2022/06/30 06:09:05;;;;;;;2.03;1.48;;;22.70;61.10;;;;;;5058079;28;20052;-69
2022/06/30 06:11:32;;;;;;;2.13;1.45;;;22.70;61.20;;;;;;5062649;28;20037;-68
2022/06/30 06:13:58;;;;;;;5.15;1.58;;;22.70;61.20;;;;;;5049825;28;20063;-73
2022/06/30 06:16:24;;;;;;;5.05;1.70;;;22.70;61.60;;;;;;5053412;28;20095;-69
2022/06/30 06:18:50;;;;;;;3.10;1.48;;;22.80;61.90;;;;;;5064033;28;20040;-68
2022/06/30 06:21:16;;;;;;;3.00;1.35;;;22.80;61.90;;;;;;5058493;28;20051;-69
2022/06/30 06:23:42;;;;;;;1.92;1.35;;;22.80;61.80;;;;;;5062866;28;20044;-68
2022/06/30 06:26:08;;;;;;;4.65;1.90;;;22.90;61.80;;;;;;5058220;28;20041;-68
2022/06/30 06:31:19;;;;;;;4.10;2.17;;;22.80;61.90;;;;;;5044279;28;20045;-67
2022/06/30 06:33:46;;;;;;;3.65;1.88;;;22.90;62.70;;;;;;5064267;28;20557;-68
2022/06/30 06:36:15;;;;;;;3.60;2.13;;;22.90;61.90;;;;;;5047358;28;20668;-68
2022/06/30 06:38:41;;;;;;;2.78;2.10;;;22.90;61.90;;;;;;5048871;28;20036;-67
2022/06/30 06:41:08;;;;;;;2.85;2.30;;;22.90;62.00;;;;;;5050066;28;20047;-68
2022/06/30 06:43:34;;;;;;;2.72;1.63;;;22.90;62.00;;;;;;5049853;28;20049;-67
2022/06/30 06:46:03;;;;;;;2.15;1.92;;;22.90;62.00;;;;;;5049959;28;20048;-67
2022/06/30 06:48:29;;;;;;;5.25;1.83;;;23.00;61.90;;;;;;5049152;28;20077;-66
2022/06/30 06:50:54;;;;;;;2.40;1.90;;;23.00;62.10;;;;;;5047891;28;20368;-67
2022/06/30 06:53:20;;;;;;;5.28;2.15;;;23.00;62.30;;;;;;5051289;28;20544;-67
2022/06/30 06:55:46;;;;;;;2.85;2.20;;;23.00;62.30;;;;;;5050158;28;20057;-67
2022/06/30 06:58:12;;;;;;;9.77;2.00;;;23.10;62.30;;;;;;5044052;28;20052;-71
2022/06/30 07:00:37;;;;;;;5.30;1.92;;;23.10;62.40;;;;;;5041730;28;20123;-70
2022/06/30 07:03:03;;;;;;;7.90;2.05;;;23.10;62.50;;;;;;5049502;28;20046;-70
2022/06/30 07:05:29;;;;;;;4.43;2.30;;;23.10;62.80;;;;;;5047389;28;20047;-69
2022/06/30 07:07:58;;;;;;;3.53;2.50;;;23.10;63.30;;;;;;5048670;28;20036;-68
2022/06/30 07:10:25;;;;;;;8.70;2.42;;;23.20;63.40;;;;;;5045064;28;20132;-68
2022/06/30 07:12:53;;;;;;;4.63;2.40;;;23.20;63.40;;;;;;5046368;28;20036;-67
2022/06/30 07:15:21;;;;;;;5.60;2.63;;;23.20;63.30;;;;;;5049975;28;20060;-71
2022/06/30 07:17:47;;;;;;;5.80;2.30;;;23.30;63.60;;;;;;5064825;28;20036;-68
2022/06/30 07:20:13;;;;;;;3.83;2.50;;;23.30;63.70;;;;;;5065226;28;20045;-68
2022/06/30 07:22:39;;;;;;;5.03;2.33;;;23.30;63.80;;;;;;5049543;28;20043;-68
2022/06/30 07:25:05;;;;;;;3.67;2.30;;;23.40;64.10;;;;;;5048355;28;20440;-67
2022/06/30 07:27:32;;;;;;;7.78;2.47;;;23.30;64.10;;;;;;5048642;28;20668;-67
2022/06/30 07:29:57;;;;;;;5.32;2.42;;;23.40;64.10;;;;;;5048467;28;20561;-68
2022/06/30 07:32:24;;;;;;;7.85;3.15;;;23.40;64.00;;;;;;5051209;28;20044;-66
2022/06/30 07:34:50;;;;;;;4.78;2.58;;;23.40;64.60;;;;;;5048840;28;20040;-68
2022/06/30 07:37:15;;;;;;;6.35;3.42;;;23.50;64.80;;;;;;5046599;28;20044;-67
2022/06/30 07:39:42;;;;;;;4.50;2.50;;;23.50;64.80;;;;;;5048720;28;20037;-68
2022/06/30 07:42:07;;;;;;;3.70;3.25;;;23.50;64.70;;;;;;5050226;28;20045;-68
2022/06/30 07:44:33;;;;;;;4.20;2.80;;;23.50;64.70;;;;;;5054029;28;20388;-69
2022/06/30 07:46:59;;;;;;;8.88;2.72;;;23.60;64.60;;;;;;5046010;28;20048;-68
2022/06/30 07:49:24;;;;;;;5.47;2.92;;;23.60;64.60;;;;;;5046278;28;20677;-67
2022/06/30 07:51:50;;;;;;;4.35;2.67;;;23.60;64.70;;;;;;5047726;28;20032;-67
2022/06/30 07:54:16;;;;;;;6.75;2.78;;;23.70;64.80;;;;;;5046953;28;20515;-68
2022/06/30 07:56:45;;;;;;;5.45;3.00;;;23.70;64.90;;;;;;5046037;28;20048;-68
2022/06/30 07:59:14;;;;;;;7.35;3.05;;;23.70;64.80;;;;;;5065019;28;20045;-70
2022/06/30 08:01:39;;;;;;;5.65;3.55;;;23.70;64.90;;;;;;5046903;28;20064;-70
2022/06/30 08:04:05;;;;;;;4.90;3.30;;;23.80;64.80;;;;;;5045496;28;20449;-72
2022/06/30 08:06:30;;;;;;;5.30;2.92;;;23.80;64.80;;;;;;5048352;28;20534;-69
2022/06/30 08:08:56;;;;;;;4.03;2.80;;;23.80;65.00;;;;;;5056509;28;20500;-69
2022/06/30 08:11:23;;;;;;;5.47;2.78;;;23.90;64.80;;;;;;5050160;28;20395;-68
2022/06/30 08:13:48;;;;;;;7.22;3.88;;;23.90;64.70;;;;;;5048359;28;20784;-68
2022/06/30 08:16:15;;;;;;;7.93;3.50;;;23.90;64.80;;;;;;5049797;28;20041;-68
2022/06/30 08:18:42;;;;;;;5.90;2.92;;;23.90;64.90;;;;;;5052919;28;20044;-69
2022/06/30 08:21:09;;;;;;;5.75;3.60;;;23.90;65.10;;;;;;5051704;28;20051;-69
2022/06/30 08:23:35;;;;;;;4.70;3.17;;;24.00;65.10;;;;;;5053415;28;20036;-69
2022/06/30 08:26:01;;;;;;;4.35;2.70;;;24.00;65.30;;;;;;5054515;28;20484;-69
2022/06/30 08:28:32;;;;;;;6.35;3.42;;;24.10;65.30;;;;;;5054577;28;20481;-68
2022/06/30 08:31:00;;;;;;;5.65;3.83;;;24.10;65.30;;;;;;5055832;28;20055;-68
2022/06/30 08:33:26;;;;;;;5.32;2.72;;;24.10;65.10;;;;;;5054026;28;20052;-67
2022/06/30 08:35:51;;;;;;;4.47;3.05;;;24.20;64.90;;;;;;5073347;28;20383;-67
2022/06/30 08:38:17;;;;;;;4.55;3.70;;;24.30;64.90;;;;;;5054056;28;20528;-67
2022/06/30 08:43:29;;;;;;;4.93;3.55;;;24.40;64.70;;;;;;5053817;28;20037;-67
2022/06/30 08:45:57;;;;;;;5.20;3.13;;;24.50;64.50;;;;;;5070761;28;20043;-67
2022/06/30 08:48:23;;;;;;;3.65;3.05;;;24.50;64.10;;;;;;5048995;28;20049;-67
2022/06/30 08:50:53;;;;;;;9.00;4.05;;;24.70;63.90;;;;;;5067166;28;20117;-69
2022/06/30 08:53:23;;;;;;;4.78;3.30;;;24.80;63.90;;;;;;5056414;28;20432;-70
2022/06/30 08:55:50;;;;;;;8.45;3.45;;;24.90;63.70;;;;;;5055171;28;20056;-69
2022/06/30 08:58:18;;;;;;;5.32;3.28;;;24.90;63.40;;;;;;5069468;28;20048;-69
2022/06/30 09:00:45;;;;;;;12.48;4.70;;;25.00;63.30;;;;;;5053159;28;20032;-68
2022/06/30 09:03:11;;;;;;;9.15;3.75;;;25.10;62.90;;;;;;5063452;28;20473;-72
2022/06/30 09:05:37;;;;;;;8.98;3.83;;;25.20;62.50;;;;;;5040478;28;20040;-69
2022/06/30 09:08:06;;;;;;;7.55;4.60;;;25.40;62.00;;;;;;5064968;28;20131;-74
2022/06/30 09:10:32;;;;;;;5.32;3.65;;;25.50;61.70;;;;;;5065347;28;20055;-73
2022/06/30 09:13:00;;;;;;;6.28;3.80;;;25.70;61.40;;;;;;5050655;28;20553;-72
2022/06/30 09:15:29;;;;;;;4.47;4.05;;;25.80;61.30;;;;;;5050515;28;20041;-71
2022/06/30 09:17:55;;;;;;;9.75;4.00;;;26.00;61.40;;;;;;5052054;28;20492;-70
2022/06/30 09:20:33;;;;;;;8.32;3.85;;;26.10;61.30;;;;;;5051482;28;20045;-69
2022/06/30 09:22:59;;;;;;;6.13;3.60;;;26.20;61.00;;;;;;5068412;28;20167;-71
2022/06/30 09:25:30;;;;;;;5.18;3.88;;;26.20;60.80;;;;;;5054545;28;20040;-70
2022/06/30 09:27:56;;;;;;;7.40;3.72;;;26.30;60.70;;;;;;5052559;28;20041;-70
2022/06/30 09:30:26;;;;;;;4.70;4.00;;;26.40;60.50;;;;;;5055357;28;20646;-70
2022/06/30 09:32:57;;;;;;;4.45;4.03;;;26.30;60.20;;;;;;5052133;28;20952;-71
2022/06/30 09:35:27;;;;;;;6.07;4.40;;;26.40;60.20;;;;;;5072830;28;20037;-71
2022/06/30 09:38:09;;;;;;;;;;;26.40;60.00;;;;;;5047124;28;20055;-70
2022/06/30 09:41:15;;;;;;;5.90;3.60;;;26.40;60.00;;;;;;5045962;28;19920;-69
2022/06/30 09:43:31;;;;;;;8.05;3.95;;;26.40;59.80;;;;;;5050810;28;20080;-67
2022/06/30 09:45:57;;;;;;;5.35;4.00;;;26.40;59.50;;;;;;5049925;28;20493;-67
2022/06/30 09:48:26;;;;;;;7.00;4.72;;;26.40;59.80;;;;;;5050894;28;20093;-71
2022/06/30 09:51:01;;;;;;;6.72;4.50;;;26.50;60.40;;;;;;5051848;28;20052;-69
2022/06/30 09:53:27;;;;;;;6.18;4.03;;;26.60;60.70;;;;;;5059984;28;20411;-70
2022/06/30 09:55:53;;;;;;;5.78;3.55;;;26.70;60.70;;;;;;5057753;28;20057;-70
2022/06/30 10:01:05;;;;;;;7.63;4.63;;;26.70;60.70;;;;;;5093745;27;20507;-68
2022/06/30 10:03:31;;;;;;;9.23;4.88;;;26.80;60.70;;;;;;5102284;28;20133;-72
2022/06/30 10:06:15;;;;;;;7.95;4.00;;;26.70;60.60;;;;;;5114185;27;20075;-68
2022/06/30 10:08:44;;;;;;;8.25;4.18;;;26.70;60.90;;;;;;5102772;28;20070;-69
2022/06/30 10:11:10;;;;;;;7.47;4.70;;;26.70;60.80;;;;;;5113135;27;20126;-72
2022/06/30 10:13:38;;;;;;;8.07;5.03;;;26.70;60.80;;;;;;5102365;28;20589;-72
2022/06/30 10:16:05;;;;;;;8.07;4.70;;;26.70;60.60;;;;;;5094847;28;20122;-70
2022/06/30 10:18:35;;;;;;;8.07;4.78;;;26.70;60.60;;;;;;5110597;27;20051;-71
2022/06/30 10:21:02;;;;;;;7.88;5.68;;;26.70;60.50;;;;;;5115224;27;20058;-70
2022/06/30 10:23:28;;;;;;;7.30;5.32;;;26.70;60.40;;;;;;5098373;28;20059;-72
2022/06/30 10:25:54;;;;;;;6.30;4.80;;;26.70;60.30;;;;;;5099150;28;20040;-72
2022/06/30 10:28:24;;;;;;;6.82;4.28;;;26.70;60.20;;;;;;5101249;28;20044;-72
2022/06/30 10:31:00;;;;;;;5.37;4.90;;;26.60;60.10;;;;;;5094745;28;20088;-72
2022/06/30 10:36:21;;;;;;;7.90;4.32;;;26.50;60.20;;;;;;5081855;27;20486;-70
2022/06/30 10:39:17;;;;;;;5.65;3.97;;;26.40;60.30;;;;;;5061717;28;20135;-69
2022/06/30 10:41:45;;;;;;;4.25;3.88;;;26.40;60.40;;;;;;5077631;28;20048;-69
2022/06/30 10:44:14;;;;;;;5.13;4.20;;;26.30;60.10;;;;;;5058652;28;20036;-70
2022/06/30 10:49:51;;;;;;;11.77;4.00;;;26.40;60.10;;;;;;5065041;27;20474;-69
2022/06/30 10:52:21;;;;;;;5.82;3.88;;;26.40;60.30;;;;;;5055160;28;20056;-66
2022/06/30 10:54:47;;;;;;;13.65;4.50;;;26.40;60.20;;;;;;5054113;28;20044;-69
2022/06/30 10:57:13;;;;;;;7.40;4.03;;;26.50;60.20;;;;;;5051469;28;20049;-75
2022/06/30 10:59:41;;;;;;;4.25;3.85;;;26.50;60.10;;;;;;5050839;28;20052;-72
2022/06/30 11:04:49;;;;;;;6.38;4.97;;;26.50;59.90;;;;;;5052484;28;20442;-73
2022/06/30 11:07:23;;;;;;;5.47;4.50;;;26.60;59.80;;;;;;5048235;28;20058;-70
2022/06/30 11:15:10;;;;;;;7.57;4.10;;;26.60;59.70;;;;;;5089283;27;20479;-68
2022/06/30 11:17:39;;;;;;;5.10;4.40;;;26.50;60.00;;;;;;5091316;28;20131;-71
2022/06/30 11:20:08;;;;;;;8.70;5.50;;;26.50;60.00;;;;;;5091611;28;20665;-69
2022/06/30 11:22:34;;;;;;;6.20;4.53;;;26.40;60.00;;;;;;5093127;28;20527;-70
2022/06/30 11:25:10;;;;;;;6.68;4.18;;;26.40;59.90;;;;;;5092177;28;20104;-71
2022/06/30 11:27:38;;;;;;;8.73;5.45;;;26.50;59.80;;;;;;5090349;28;20036;-69
2022/06/30 11:30:07;;;;;;;5.68;4.70;;;26.50;59.30;;;;;;5095913;28;20143;-70
2022/06/30 11:32:33;;;;;;;7.20;4.20;;;26.50;58.80;;;;;;5109499;27;20071;-70
2022/06/30 11:34:59;;;;;;;5.68;4.00;;;26.50;58.80;;;;;;5096391;28;20115;-72
2022/06/30 11:37:28;;;;;;;6.97;4.25;;;26.50;58.80;;;;;;5093422;28;20093;-72
2022/06/30 11:39:58;;;;;;;7.43;4.25;;;26.50;58.90;;;;;;5089727;28;20965;-71
2022/06/30 11:42:24;;;;;;;9.05;4.20;;;26.40;58.90;;;;;;5092882;28;20037;-71
2022/06/30 11:44:51;;;;;;;4.65;3.38;;;26.40;59.10;;;;;;5078771;28;20738;-67
2022/06/30 11:47:17;;;;;;;6.28;3.70;;;26.30;59.10;;;;;;5089034;28;20075;-72
2022/06/30 11:55:06;;;;;;;5.88;3.88;;;26.30;59.10;;;;;;5102739;27;20469;-68
2022/06/30 11:57:38;;;;;;;7.13;3.57;;;26.40;58.40;;;;;;5140072;27;20765;-67
2022/06/30 12:00:09;;;;;;;7.03;3.60;;;26.40;58.30;;;;;;5106843;28;20035;-69
2022/06/30 12:02:36;;;;;;;5.10;3.65;;;26.40;58.00;;;;;;5134911;27;20715;-68
2022/06/30 12:05:04;;;;;;;7.80;3.05;;;26.40;58.00;;;;;;5133818;27;20097;-73
2022/06/30 12:07:31;;;;;;;4.30;2.08;;;26.40;57.70;;;;;;5106666;27;20078;-68
2022/06/30 12:09:57;;;;;;;4.70;2.28;;;26.50;56.50;;;;;;5105407;27;20036;-68
2022/06/30 12:12:27;;;;;;;5.00;1.88;;;26.50;55.80;;;;;;5107266;28;20550;-68
2022/06/30 12:14:56;;;;;;;6.22;1.80;;;26.60;55.30;;;;;;5133921;27;20094;-69
2022/06/30 12:17:22;;;;;;;2.67;1.45;;;26.50;54.70;;;;;;5094245;28;20036;-69
2022/06/30 12:19:49;;;;;;;20.33;4.18;;;26.60;53.90;;;;;;5132222;27;20103;-67
2022/06/30 12:22:14;;;;;;;20.65;3.13;;;26.60;53.10;;;;;;5086805;28;20107;-71
2022/06/30 12:24:43;;;;;;;14.65;3.05;;;26.60;53.00;;;;;;5094421;28;20203;-69
2022/06/30 12:27:26;;;;;;;11.10;1.52;;;26.60;53.20;;;;;;5096356;28;20096;-69
2022/06/30 12:29:57;;;;;;;32.55;5.47;;;26.60;53.00;;;;;;5102165;28;20101;-70
2022/06/30 12:32:22;;;;;;;19.15;3.50;;;26.60;52.70;;;;;;5102114;28;20043;-69
2022/06/30 12:34:51;;;;;;;23.42;3.90;;;26.60;52.70;;;;;;5134517;27;20093;-69
2022/06/30 12:37:37;;;;;;;15.75;2.90;;;26.60;53.20;;;;;;5102059;28;20046;-70
2022/06/30 12:40:08;;;;;;;14.68;2.58;;;26.60;53.40;;;;;;5105304;28;20104;-70
2022/06/30 12:42:52;;;;;;;12.50;2.92;;;26.50;53.80;;;;;;5133615;27;20126;-68
2022/06/30 12:48:39;;;;;;;4.07;1.52;;;26.50;54.40;;;;;;5122783;27;1258673;-68
2022/06/30 12:51:05;;;;;;;13.00;3.33;;;26.60;54.20;;;;;;5134776;27;20078;-68
2022/06/30 12:53:30;;;;;;;13.63;3.53;;;26.60;54.00;;;;;;5132053;27;20551;-69
2022/06/30 12:56:20;;;;;;;7.95;1.67;;;26.60;54.20;;;;;;5130806;27;20171;-71
2022/06/30 13:01:44;;;;;;;6.75;3.15;;;26.70;54.50;;;;;;5054124;27;20381;-72
2022/06/30 13:04:16;;;;;;;5.03;2.80;;;26.60;55.20;;;;;;5055245;28;20047;-72
2022/06/30 13:06:44;;;;;;;5.03;2.70;;;26.60;55.30;;;;;;5057057;28;20126;-72
2022/06/30 13:09:12;;;;;;;7.25;2.90;;;26.70;55.40;;;;;;5058202;28;20366;-70
2022/06/30 13:11:46;;;;;;;8.13;2.38;;;26.70;55.50;;;;;;5061433;28;20037;-68
2022/06/30 13:14:14;;;;;;;4.10;2.55;;;26.70;55.60;;;;;;5061327;28;20029;-68
2022/06/30 13:16:40;;;;;;;5.35;2.65;;;26.70;55.40;;;;;;5060429;28;20521;-67
2022/06/30 13:19:07;;;;;;;10.38;3.42;;;26.70;55.50;;;;;;5063836;28;20029;-70
2022/06/30 13:21:33;;;;;;;8.48;2.40;;;26.80;55.60;;;;;;5061528;28;20052;-72
2022/06/30 13:24:00;;;;;;;7.97;2.58;;;26.80;55.50;;;;;;5062571;28;20627;-74
2022/06/30 13:26:26;;;;;;;7.78;2.72;;;26.80;55.60;;;;;;5062691;28;20045;-72
2022/06/30 13:28:52;;;;;;;5.82;2.83;;;26.80;55.60;;;;;;5061620;28;20532;-72
2022/06/30 13:31:18;;;;;;;2.28;2.05;;;26.80;55.60;;;;;;5059961;28;20068;-70
2022/06/30 13:33:46;;;;;;;5.40;2.08;;;26.80;55.70;;;;;;5061081;28;20485;-70